Airfield :
LOGIN :

Register | Disclaimer

   EN    FR    IT 

 










Legend :    VFR   Marginal VFR   IFR   Intensive IFR   Very Intensive IFR
Visi :
Ceiling :
>= 8 km
>= 3000ft
5 to 8 km
1000 to 3000 ft
1500m to 5 km
500 to 1000 ft
800 to 1500m
200 to 500 ft
< 800m
< 200 ft
Symbols :   Thunderstorms  Fog  Heavy snow  Heavy precipitations  Wind > 20 kt
SIGMETs :     Misc.  Thunderstorms  Icing  Turbulence  Mountain Waves  Volcanic Ashes






- Airport Elevation : 74 ft
- IATA code : MRS


LFML - Marseille / Marignane

CURRENT METAR :
  • 261130Z AUTO VRB03KT CAVOK 08/02 Q1029 NOSIG

EXPIRED METARs :
  • 261100Z AUTO VRB02KT 8000 FEW010 06/02 Q1029 NOSIG
  • 261030Z AUTO VRB01KT 4600 BR VV/// 05/03 Q1030 BECMG CAVOK
  • 261000Z AUTO VRB02KT 1900 0300 R13L/0600U R31R/2600U R13R/0650D BCFG VV/// 04/04 Q1030 BECMG CAVOK
  • 260930Z AUTO VRB01KT 0450 0300 R13L/0450N R31R/0650D R13R/0550U FG VV/// 02/02 Q1030 BECMG CAVOK
  • 260900Z AUTO VRB02KT 0400 0300 R13L/1400U R31R/0375N R13R/1000U FG VV/// 02/02 Q1030 BECMG CAVOK

TAF TAF LFML
Valid from the 26 at 09:00 until the 27 at 15:00 UTC


260800Z 2609/2715 VRB03KT 3000 BR OVC003 TX12/2615Z TNM02/2705Z
TEMPO 2609/2610 0500 FG VV///
BECMG 2610/2612 CAVOK
TEMPO 2612/2617 32010KT
TEMPO 2620/2709 2000 BR
ATIS : +33 4 42 31 15 15



MET'MAP, your aeronautical weather chart ! - Copyright ORBIFLY December 2007 - Disclaimer

ORBIFLY MET'MAP TEAM :

Programming & Development : Alexandra Zaïnal
Original concept : Baudouin d'Aumeries
Technical & hardware support : Manuel Goepfert
Assistance : Marc-Olivier Méhu

Contact : metmap@orbifly.com




SOURCES & CREDITS :

   NOAA